createdAt,value
2019-04-22T00:02:12.940Z,15.40
2019-04-22T00:04:54.539Z,15.40
2019-04-22T00:07:37.242Z,15.40
2019-04-22T00:10:12.086Z,15.30
2019-04-22T00:12:47.077Z,15.30
2019-04-22T00:15:10.091Z,15.30
2019-04-22T00:17:53.787Z,15.30
2019-04-22T00:20:14.442Z,15.20
2019-04-22T00:22:44.658Z,15.20
2019-04-22T00:25:19.784Z,15.10
2019-04-22T00:27:59.054Z,15.00
2019-04-22T00:30:20.971Z,14.90
2019-04-22T00:33:07.889Z,14.80
2019-04-22T00:35:35.533Z,14.70
2019-04-22T00:38:12.182Z,14.60
2019-04-22T00:40:46.088Z,14.50
2019-04-22T00:43:15.429Z,14.50
2019-04-22T00:45:45.948Z,14.40
2019-04-22T00:48:20.680Z,14.30
2019-04-22T00:56:05.606Z,14.10
2019-04-22T00:58:37.874Z,14.10
2019-04-22T01:01:14.094Z,14.00
2019-04-22T01:06:16.090Z,13.90
2019-04-22T01:08:53.745Z,13.90
2019-04-22T01:11:25.090Z,13.80
2019-04-22T01:13:52.175Z,13.80
2019-04-22T01:18:52.264Z,13.70
2019-04-22T01:21:30.268Z,13.70
2019-04-22T01:23:53.234Z,13.70
2019-04-22T01:26:20.205Z,13.60
2019-04-22T01:28:50.040Z,13.60
2019-04-22T01:31:17.944Z,13.50
2019-04-22T01:33:49.655Z,13.50
2019-04-22T01:36:30.313Z,13.40
2019-04-22T01:39:13.394Z,13.40
2019-04-22T01:41:48.892Z,13.30
2019-04-22T01:49:25.590Z,12.90
2019-04-22T01:56:52.622Z,12.70
2019-04-22T01:59:15.703Z,12.60
2019-04-22T02:01:55.102Z,12.60
2019-04-22T02:04:39.749Z,12.50
2019-04-22T02:09:38.415Z,12.30
2019-04-22T02:14:39.911Z,12.10
2019-04-22T02:17:31.543Z,12.00
2019-04-22T02:20:04.035Z,11.90
2019-04-22T02:22:50.802Z,11.80
2019-04-22T02:25:09.070Z,11.70
2019-04-22T02:27:43.757Z,11.60
2019-04-22T02:30:06.008Z,11.50
2019-04-22T02:33:18.443Z,11.40
2019-04-22T02:35:23.990Z,11.40
2019-04-22T02:37:46.245Z,11.40
2019-04-22T02:40:17.470Z,11.40
2019-04-22T02:42:58.768Z,11.40
2019-04-22T02:45:28.785Z,11.30
2019-04-22T02:47:56.246Z,11.30
2019-04-22T02:50:16.083Z,11.20
2019-04-22T02:52:55.690Z,11.20
2019-04-22T02:55:30.348Z,11.20
2019-04-22T02:57:57.941Z,11.20
2019-04-22T03:00:53.851Z,11.20
2019-04-22T03:03:09.148Z,11.10
2019-04-22T03:05:36.498Z,11.10
2019-04-22T03:08:10.294Z,11.10
2019-04-22T03:10:56.527Z,11.00
2019-04-22T03:13:09.216Z,11.00
2019-04-22T03:15:42.565Z,11.00
2019-04-22T03:18:09.998Z,10.90
2019-04-22T03:20:41.997Z,10.90
2019-04-22T03:26:05.031Z,10.80
2019-04-22T03:28:23.668Z,10.80
2019-04-22T03:31:27.358Z,10.80
2019-04-22T03:36:49.245Z,10.70
2019-04-22T03:43:56.114Z,10.50
2019-04-22T03:46:12.932Z,10.50
2019-04-22T03:49:07.209Z,10.40
2019-04-22T03:51:38.791Z,10.40
2019-04-22T03:54:03.491Z,10.40
2019-04-22T03:56:56.407Z,10.40
2019-04-22T03:58:56.934Z,10.30
2019-04-22T04:01:37.146Z,10.30
2019-04-22T04:04:20.985Z,10.20
2019-04-22T04:06:29.680Z,10.20
2019-04-22T04:08:59.261Z,10.20
2019-04-22T04:11:45.556Z,10.20
2019-04-22T04:16:39.159Z,10.20
2019-04-22T04:19:13.146Z,10.20
2019-04-22T04:24:28.653Z,10.10
2019-04-22T04:29:25.621Z,10.00
2019-04-22T04:31:51.350Z,10.00
2019-04-22T04:34:41.121Z,9.90
2019-04-22T04:39:22.190Z,9.80
2019-04-22T04:41:52.107Z,9.90
2019-04-22T04:44:26.697Z,9.80
2019-04-22T04:46:59.271Z,9.80
2019-04-22T04:49:24.538Z,9.80
2019-04-22T04:52:19.991Z,9.80
2019-04-22T04:57:14.459Z,9.80
2019-04-22T05:02:06.639Z,9.70
2019-04-22T05:05:00.043Z,9.70
2019-04-22T05:07:09.028Z,9.70
2019-04-22T05:14:32.303Z,9.70
2019-04-22T05:19:31.994Z,9.80
2019-04-22T05:22:07.765Z,9.80
2019-04-22T05:24:38.107Z,9.80
2019-04-22T05:27:19.714Z,9.80
2019-04-22T05:30:07.436Z,9.90
2019-04-22T05:32:12.030Z,9.90
2019-04-22T05:34:44.169Z,9.90
2019-04-22T05:37:14.690Z,9.90
2019-04-22T05:39:44.948Z,9.90
2019-04-22T05:42:16.479Z,10.00
2019-04-22T05:44:49.661Z,10.00
2019-04-22T05:47:19.447Z,10.00
2019-04-22T05:49:48.607Z,10.10
2019-04-22T05:52:20.367Z,10.20
2019-04-22T05:54:54.961Z,10.20
2019-04-22T05:57:29.266Z,10.30
2019-04-22T05:59:59.476Z,10.40
2019-04-22T06:02:41.721Z,10.40
2019-04-22T06:05:00.337Z,10.50
2019-04-22T06:07:37.327Z,10.60
2019-04-22T06:10:04.667Z,10.70
2019-04-22T06:12:29.762Z,10.70
2019-04-22T06:15:24.304Z,10.70
2019-04-22T06:17:47.297Z,10.80
2019-04-22T06:20:15.901Z,10.90
2019-04-22T06:22:50.999Z,10.90
2019-04-22T06:27:57.502Z,11.10
2019-04-22T06:30:23.292Z,11.10
2019-04-22T06:32:53.964Z,11.10
2019-04-22T06:35:29.773Z,11.10
2019-04-22T06:40:29.655Z,11.10
2019-04-22T06:43:03.145Z,11.20
2019-04-22T06:45:30.505Z,11.20
2019-04-22T06:50:39.221Z,11.30
2019-04-22T06:53:03.102Z,11.40
2019-04-22T06:58:04.791Z,11.50
2019-04-22T07:03:31.719Z,11.70
2019-04-22T07:05:46.380Z,11.90
2019-04-22T07:10:47.827Z,12.10
2019-04-22T07:13:23.582Z,12.20
2019-04-22T07:15:50.585Z,12.40
2019-04-22T07:18:24.667Z,12.60
2019-04-22T07:20:51.130Z,12.70
2019-04-22T07:25:52.132Z,13.10
2019-04-22T07:28:21.599Z,13.40
2019-04-22T07:31:00.600Z,13.60
2019-04-22T07:36:23.442Z,13.90
2019-04-22T07:40:59.254Z,14.30
2019-04-22T07:43:51.637Z,14.50
2019-04-22T07:46:10.879Z,14.60
2019-04-22T07:48:46.805Z,14.80
2019-04-22T07:51:10.085Z,14.90
2019-04-22T07:53:39.215Z,15.10
2019-04-22T07:56:15.738Z,15.20
2019-04-22T07:58:42.071Z,15.30
2019-04-22T08:01:14.073Z,15.40
2019-04-22T08:04:03.182Z,15.50
2019-04-22T08:06:16.841Z,15.60
2019-04-22T08:08:55.585Z,15.60
2019-04-22T08:11:37.423Z,15.70
2019-04-22T08:13:47.058Z,15.80
2019-04-22T08:16:26.258Z,15.90
2019-04-22T08:18:56.835Z,16.10
2019-04-22T08:21:26.892Z,16.20
2019-04-22T08:24:01.201Z,16.30
2019-04-22T08:26:29.719Z,16.40
2019-04-22T08:28:59.063Z,16.60
2019-04-22T08:31:35.703Z,16.70
2019-04-22T08:34:01.969Z,16.80
2019-04-22T08:36:32.266Z,16.80
2019-04-22T08:39:08.212Z,16.90
2019-04-22T08:44:35.490Z,17.20
2019-04-22T08:46:40.997Z,17.30
2019-04-22T08:49:13.055Z,17.30
2019-04-22T08:51:42.393Z,17.40
2019-04-22T08:54:11.893Z,17.50
2019-04-22T08:56:45.945Z,17.60
2019-04-22T09:01:50.731Z,17.80
2019-04-22T09:04:16.618Z,17.90
2019-04-22T09:07:09.163Z,17.90
2019-04-22T09:09:27.225Z,18.10
2019-04-22T09:12:00.223Z,18.10
2019-04-22T09:17:07.445Z,18.20
2019-04-22T09:19:30.007Z,18.40
2019-04-22T09:22:26.600Z,18.50
2019-04-22T09:24:46.968Z,18.60
2019-04-22T09:27:26.048Z,18.70
2019-04-22T09:29:50.090Z,18.80
2019-04-22T09:32:27.242Z,18.90
2019-04-22T09:34:51.750Z,18.90
2019-04-22T09:40:04.532Z,19.20
2019-04-22T09:42:37.221Z,19.30
2019-04-22T09:45:15.128Z,19.40
2019-04-22T09:47:55.086Z,19.50
2019-04-22T09:50:29.173Z,19.70
2019-04-22T09:53:06.145Z,19.80
2019-04-22T09:55:24.356Z,19.90
2019-04-22T09:57:58.851Z,19.90
2019-04-22T10:00:38.050Z,20.00
2019-04-22T10:03:07.225Z,20.10
2019-04-22T10:05:41.222Z,20.20
2019-04-22T10:08:18.687Z,20.30
2019-04-22T10:10:46.871Z,20.30
2019-04-22T10:13:14.100Z,20.40
2019-04-22T10:15:50.189Z,20.40
2019-04-22T10:18:20.359Z,20.50
2019-04-22T10:20:45.903Z,20.50
2019-04-22T10:23:21.670Z,20.60
2019-04-22T10:25:54.156Z,20.60
2019-04-22T10:28:23.582Z,20.70
2019-04-22T10:33:22.450Z,20.80
2019-04-22T10:35:32.544Z,20.90
2019-04-22T10:38:03.839Z,20.90
2019-04-22T10:40:38.774Z,21.10
2019-04-22T10:43:11.498Z,21.20
2019-04-22T10:45:42.009Z,21.20
2019-04-22T10:48:14.388Z,21.40
2019-04-22T10:50:46.770Z,21.40
2019-04-22T10:53:23.884Z,21.50
2019-04-22T10:55:54.415Z,21.60
2019-04-22T10:58:30.715Z,21.70
2019-04-22T11:01:03.250Z,21.80
2019-04-22T11:03:33.441Z,21.80
2019-04-22T11:06:03.666Z,21.90
2019-04-22T11:08:42.453Z,22.00
2019-04-22T11:11:18.987Z,22.10
2019-04-22T11:13:37.827Z,22.10
2019-04-22T11:16:07.980Z,22.20
2019-04-22T11:18:37.980Z,22.30
2019-04-22T11:21:13.775Z,22.40
2019-04-22T11:23:44.781Z,22.50
2019-04-22T11:26:17.635Z,22.50
2019-04-22T11:28:47.658Z,22.60
2019-04-22T11:31:18.684Z,22.60
2019-04-22T11:33:48.537Z,22.60
2019-04-22T11:36:19.744Z,22.70
2019-04-22T11:38:56.440Z,22.80
2019-04-22T11:41:28.604Z,22.80
2019-04-22T11:43:59.122Z,22.90
2019-04-22T11:46:29.526Z,22.90
2019-04-22T11:49:00.290Z,23.00
2019-04-22T11:51:42.198Z,23.10
2019-04-22T11:54:12.579Z,23.10
2019-04-22T11:56:43.063Z,23.10
2019-04-22T11:59:13.085Z,23.20
2019-04-22T12:01:42.865Z,23.20
2019-04-22T12:04:13.720Z,23.30
2019-04-22T12:06:44.161Z,23.30
2019-04-22T12:09:15.447Z,23.40
2019-04-22T12:11:46.769Z,23.50
2019-04-22T12:14:18.072Z,23.60
2019-04-22T12:16:47.839Z,23.70
2019-04-22T12:19:29.414Z,23.70
2019-04-22T12:22:00.717Z,23.70
2019-04-22T12:24:30.381Z,23.70
2019-04-22T12:27:00.540Z,23.70
2019-04-22T12:29:31.052Z,23.70
2019-04-22T12:32:01.137Z,23.70
2019-04-22T12:34:31.357Z,23.80
2019-04-22T12:37:02.519Z,23.80
2019-04-22T12:39:33.618Z,23.80
2019-04-22T12:42:04.373Z,23.90
2019-04-22T12:44:38.477Z,23.90
2019-04-22T12:47:09.845Z,24.10
2019-04-22T12:49:42.377Z,24.10
2019-04-22T12:52:23.427Z,24.10
2019-04-22T12:54:44.577Z,24.10
2019-04-22T12:57:14.800Z,24.20
2019-04-22T12:59:45.647Z,24.30
2019-04-22T13:02:19.045Z,24.40
2019-04-22T13:04:49.968Z,24.50
2019-04-22T13:07:20.201Z,24.50
2019-04-22T13:09:51.497Z,24.40
2019-04-22T13:12:22.477Z,24.40
2019-04-22T13:14:52.974Z,24.50
2019-04-22T13:17:23.055Z,24.50
2019-04-22T13:19:54.095Z,24.60
2019-04-22T13:22:24.968Z,24.60
2019-04-22T13:24:54.616Z,24.80
2019-04-22T13:27:24.780Z,24.80
2019-04-22T13:29:55.156Z,24.90
2019-04-22T13:32:25.063Z,25.00
2019-04-22T13:35:03.975Z,25.10
2019-04-22T13:37:35.047Z,25.20
2019-04-22T13:40:05.431Z,25.30
2019-04-22T13:42:35.547Z,25.30
2019-04-22T13:45:15.832Z,25.40
2019-04-22T13:48:02.984Z,25.40
2019-04-22T13:50:49.888Z,25.50
2019-04-22T13:53:29.659Z,25.50
2019-04-22T13:58:05.858Z,25.50
2019-04-22T14:00:28.984Z,25.60
2019-04-22T14:03:18.232Z,25.60
2019-04-22T14:05:53.014Z,25.50
2019-04-22T14:08:23.043Z,25.50
2019-04-22T14:10:54.106Z,25.50
2019-04-22T14:13:30.349Z,25.40
2019-04-22T14:16:01.334Z,25.40
2019-04-22T14:18:31.177Z,25.50
2019-04-22T14:21:01.115Z,25.60
2019-04-22T14:23:30.967Z,25.60
2019-04-22T14:26:01.312Z,25.70
2019-04-22T14:28:33.687Z,25.70
2019-04-22T14:31:04.359Z,25.70
2019-04-22T14:33:34.422Z,25.70
2019-04-22T14:36:04.775Z,25.70
2019-04-22T14:38:39.847Z,25.80
2019-04-22T14:41:12.092Z,25.90
2019-04-22T14:44:49.604Z,25.90
2019-04-22T14:46:47.810Z,25.80
2019-04-22T14:49:02.820Z,25.80
2019-04-22T14:51:39.212Z,25.80
2019-04-22T14:54:06.941Z,25.80
2019-04-22T14:56:20.248Z,25.80
2019-04-22T14:58:50.884Z,25.90
2019-04-22T15:01:21.105Z,25.90
2019-04-22T15:03:50.815Z,26.00
2019-04-22T15:06:22.334Z,26.20
2019-04-22T15:08:59.631Z,26.20
2019-04-22T15:11:42.873Z,26.20
2019-04-22T15:14:01.329Z,26.30
2019-04-22T15:16:42.641Z,26.40
2019-04-22T15:19:47.720Z,26.50
2019-04-22T15:22:18.735Z,26.50
2019-04-22T15:24:48.656Z,26.90
2019-04-22T15:27:20.256Z,27.70
2019-04-22T15:29:53.568Z,28.80
2019-04-22T15:32:25.191Z,30.00
2019-04-22T15:34:55.382Z,30.70
2019-04-22T15:37:26.402Z,31.60
2019-04-22T15:39:56.864Z,32.20
2019-04-22T15:42:30.738Z,32.70
2019-04-22T15:44:58.092Z,33.30
2019-04-22T15:47:29.077Z,33.10
2019-04-22T15:50:00.283Z,32.30
2019-04-22T15:52:36.573Z,30.80
2019-04-22T15:55:02.758Z,29.40
2019-04-22T15:57:36.067Z,28.40
2019-04-22T16:00:28.407Z,27.70
2019-04-22T16:02:43.722Z,27.30
2019-04-22T16:05:14.906Z,26.90
2019-04-22T16:07:45.856Z,26.70
2019-04-22T16:10:17.802Z,26.60
2019-04-22T16:12:57.515Z,26.30
2019-04-22T16:15:20.317Z,26.10
2019-04-22T16:17:50.821Z,25.80
2019-04-22T16:20:23.002Z,25.50
2019-04-22T16:23:29.754Z,25.40
2019-04-22T16:26:09.748Z,25.20
2019-04-22T16:28:39.654Z,25.00
2019-04-22T16:31:09.448Z,24.80
2019-04-22T16:33:41.478Z,24.80
2019-04-22T16:36:11.060Z,24.60
2019-04-22T16:38:42.777Z,24.50
2019-04-22T16:41:12.900Z,24.40
2019-04-22T16:43:44.688Z,24.20
2019-04-22T16:46:15.895Z,24.10
2019-04-22T16:48:47.484Z,23.90
2019-04-22T16:51:24.413Z,23.80
2019-04-22T16:53:54.205Z,23.70
2019-04-22T16:56:24.768Z,23.60
2019-04-22T16:58:56.732Z,23.60
2019-04-22T17:02:01.247Z,23.60
2019-04-22T17:04:59.639Z,23.70
2019-04-22T17:07:29.975Z,23.80
2019-04-22T17:09:59.864Z,24.20
2019-04-22T17:12:41.895Z,24.60
2019-04-22T17:15:06.142Z,25.60
2019-04-22T17:17:47.392Z,27.00
2019-04-22T17:20:17.453Z,28.10
2019-04-22T17:23:02.589Z,29.00
2019-04-22T17:25:32.247Z,29.40
2019-04-22T17:28:03.666Z,29.60
2019-04-22T17:30:34.254Z,30.20
2019-04-22T17:33:05.215Z,29.70
2019-04-22T17:35:36.025Z,29.70
2019-04-22T17:38:16.694Z,29.60
2019-04-22T17:40:53.743Z,29.50
2019-04-22T17:43:44.186Z,28.80
2019-04-22T17:46:07.184Z,28.50
2019-04-22T17:49:04.279Z,27.90
2019-04-22T17:51:55.114Z,27.20
2019-04-22T17:54:07.243Z,27.00
2019-04-22T17:56:37.518Z,26.90
2019-04-22T17:59:08.279Z,27.00
2019-04-22T18:01:38.289Z,26.80
2019-04-22T18:03:56.614Z,26.10
2019-04-22T18:06:50.061Z,25.20
2019-04-22T18:09:11.234Z,24.20
2019-04-22T18:11:51.054Z,23.30
2019-04-22T18:14:35.080Z,22.60
2019-04-22T18:16:54.126Z,22.10
2019-04-22T18:19:19.336Z,21.60
2019-04-22T18:21:50.066Z,21.30
2019-04-22T18:24:11.439Z,20.90
2019-04-22T18:26:53.463Z,20.60
2019-04-22T18:29:31.564Z,20.40
2019-04-22T18:31:50.184Z,20.10
2019-04-22T18:34:26.628Z,20.00
2019-04-22T18:36:59.117Z,19.90
2019-04-22T18:39:42.358Z,19.70
2019-04-22T18:42:03.413Z,19.60
2019-04-22T18:44:39.874Z,19.40
2019-04-22T18:47:10.544Z,19.40
2019-04-22T18:49:37.592Z,19.30
2019-04-22T18:52:27.172Z,19.10
2019-04-22T18:55:16.671Z,19.00
2019-04-22T18:58:03.045Z,18.90
2019-04-22T19:00:19.047Z,18.70
2019-04-22T19:02:56.923Z,18.70
2019-04-22T19:05:34.746Z,18.60
2019-04-22T19:08:21.448Z,18.50
2019-04-22T19:16:09.743Z,18.30
2019-04-22T19:18:32.375Z,18.20
2019-04-22T19:20:57.821Z,18.10
2019-04-22T19:23:28.683Z,18.10
2019-04-22T19:25:52.636Z,18.00
2019-04-22T19:31:02.720Z,17.90
2019-04-22T19:33:34.938Z,17.80
2019-04-22T19:36:10.005Z,17.80
2019-04-22T19:38:25.624Z,17.70
2019-04-22T19:41:18.574Z,17.70
2019-04-22T19:43:38.955Z,17.60
2019-04-22T19:46:08.946Z,17.60
2019-04-22T19:48:56.535Z,17.50
2019-04-22T19:51:19.032Z,17.50
2019-04-22T19:53:47.406Z,17.40
2019-04-22T19:56:07.214Z,17.30
2019-04-22T19:58:53.216Z,17.30
2019-04-22T20:01:40.116Z,17.20
2019-04-22T20:04:41.604Z,17.10
2019-04-22T20:06:53.727Z,17.10
2019-04-22T20:09:29.969Z,17.00
2019-04-22T20:12:01.119Z,17.00
2019-04-22T20:14:35.805Z,16.90
2019-04-22T20:16:58.559Z,16.80
2019-04-22T20:19:45.820Z,16.80
2019-04-22T20:22:09.799Z,16.80
2019-04-22T20:24:28.191Z,16.70
2019-04-22T20:27:16.364Z,16.60
2019-04-22T20:29:48.173Z,16.60
2019-04-22T20:32:16.938Z,16.50
2019-04-22T20:34:52.834Z,16.50
2019-04-22T20:37:23.627Z,16.50
2019-04-22T20:39:48.795Z,16.40
2019-04-22T20:42:33.229Z,16.40
2019-04-22T20:44:52.046Z,16.40
2019-04-22T20:47:20.677Z,16.30
2019-04-22T20:50:00.714Z,16.20
2019-04-22T20:55:00.105Z,16.20
2019-04-22T20:57:34.701Z,16.10
2019-04-22T21:00:08.934Z,16.10
2019-04-22T21:02:36.286Z,16.10
2019-04-22T21:05:08.184Z,16.00
2019-04-22T21:07:47.894Z,16.00
2019-04-22T21:10:15.800Z,15.90
2019-04-22T21:12:41.790Z,15.90
2019-04-22T21:15:29.952Z,15.80
2019-04-22T21:17:53.353Z,15.80
2019-04-22T21:20:31.792Z,15.70
2019-04-22T21:22:58.341Z,15.70
2019-04-22T21:25:22.697Z,15.60
2019-04-22T21:28:04.463Z,15.60
2019-04-22T21:30:32.261Z,15.60
2019-04-22T21:32:57.758Z,15.50
2019-04-22T21:35:59.621Z,15.50
2019-04-22T21:38:09.778Z,15.50
2019-04-22T21:40:37.683Z,15.50
2019-04-22T21:43:12.656Z,15.40
2019-04-22T21:45:35.373Z,15.40
2019-04-22T21:48:20.111Z,15.30
2019-04-22T21:53:25.509Z,15.30
2019-04-22T21:55:58.528Z,15.20
2019-04-22T21:58:24.523Z,15.20
2019-04-22T22:01:21.244Z,15.20
2019-04-22T22:03:52.274Z,15.10
2019-04-22T22:06:14.201Z,15.10
2019-04-22T22:08:51.352Z,15.00
2019-04-22T22:11:18.827Z,15.00
2019-04-22T22:13:50.429Z,15.00
2019-04-22T22:16:19.157Z,14.90
2019-04-22T22:19:00.966Z,14.90
2019-04-22T22:24:04.385Z,14.80
2019-04-22T22:26:35.168Z,14.70
2019-04-22T22:29:31.827Z,14.70
2019-04-22T22:31:40.243Z,14.60
2019-04-22T22:34:10.904Z,14.60
2019-04-22T22:36:29.626Z,14.50
2019-04-22T22:39:03.912Z,14.50
2019-04-22T22:41:18.550Z,14.30
2019-04-22T22:43:51.263Z,14.30
2019-04-22T22:46:33.047Z,14.40
2019-04-22T22:49:18.643Z,14.40
2019-04-22T22:54:21.448Z,14.30
2019-04-22T22:56:57.616Z,14.30
2019-04-22T22:59:18.232Z,14.30
2019-04-22T23:01:45.141Z,14.20
2019-04-22T23:04:28.388Z,14.10
2019-04-22T23:07:04.324Z,14.20
2019-04-22T23:09:36.677Z,14.20
2019-04-22T23:12:13.301Z,14.20
2019-04-22T23:14:37.133Z,14.20
2019-04-22T23:16:55.675Z,14.20
2019-04-22T23:19:19.883Z,14.10
2019-04-22T23:21:52.627Z,14.10
2019-04-22T23:24:55.610Z,14.10
2019-04-22T23:27:34.487Z,14.10
2019-04-22T23:30:02.370Z,14.00
2019-04-22T23:32:35.252Z,14.00
2019-04-22T23:35:20.980Z,14.00
2019-04-22T23:37:50.591Z,14.00
2019-04-22T23:42:58.886Z,13.90
2019-04-22T23:45:27.041Z,13.90
2019-04-22T23:47:47.300Z,13.90
2019-04-22T23:50:33.987Z,13.90
2019-04-22T23:53:06.497Z,13.90
2019-04-22T23:55:38.430Z,13.80
2019-04-22T23:58:11.840Z,13.80
